Berthoud Pass, CO

5:38 PM MST on January 15, 2019 (GMT -0700)
Berthoud Pass

Weather History for K0CO - January, 2019

Change the Weather History Date:

Tuesday, January 15, 2019

  Actual Average (KBJC) Record (KBJC)
Temperature  
Mean Temperature 12 °F -  
Max Temperature 19 °F 44 °F 64 °F (2000)
Min Temperature 5 °F 24 °F -4 °F (1992)
Degree Days  
Heating Degree Days 53    
Moisture  
Dew Point 1 °F    
Average Humidity 59    
Maximum Humidity 63    
Minimum Humidity 56    
Precipitation  
Precipitation 0.00 in - - ()
Sea Level Pressure  
Sea Level Pressure 30.16 in    
Wind  
Wind Speed 18 mph ()    
Max Wind Speed 33 mph    
Max Gust Speed 41 mph    
Visibility 8.6 miles    
Events Snow , Thunderstorm    
Averages and records for this station are not official NWS values.
T = Trace of Precipitation, MM = Missing Value Source: Averaged Metar Reports

Daily Weather History Graph

Daily Weather History Graph

Search for Another Location

Airport or City:

Astronomy

Jan. 15, 2019 Rise Set
Actual Time 7:22 AM MST 5:02 PM MST
Civil Twilight 6:52 AM MST 5:32 PM MST
Nautical Twilight 6:19 AM MST 6:05 PM MST
Astronomical Twilight 5:47 AM MST 6:38 PM MST
Moon 12:36 PM MST (1/15) 1:21 AM MST (1/15)
Length of Visible Light 10h 39m
Length of Day
9h 40m
Waxing Gibbous, 65% of the Moon is Illuminated
Today
Waxing Gibbous
Jan 20
Full
Jan 27
Last Quarter
Feb 4
New
Feb 12
First Quarter

Hourly Weather History & Observations

Time (MST) Temp. Windchill Dew Point Humidity Pressure Visibility Wind Dir Wind Speed Gust Speed Precip Events Conditions
12:06 AM 10.4 °F -6.6 °F -0.4 °F 62% 30.19 in 10.0 mi NNW 16.1 mph - N/A   Clear
12:23 AM 10.4 °F -7.2 °F -0.4 °F 62% 30.19 in 10.0 mi NNW 17.3 mph 23.0 mph N/A   Clear
12:47 AM 10.4 °F -4.8 °F -0.4 °F 62% 30.19 in 10.0 mi NW 12.7 mph 26.5 mph N/A   Clear
1:06 AM 10.4 °F -6.0 °F -0.4 °F 62% 30.18 in 10.0 mi NNW 15.0 mph 23.0 mph N/A   Clear
1:24 AM 12.2 °F -3.1 °F 1.4 °F 62% 30.17 in 10.0 mi NNW 13.8 mph 27.6 mph N/A   Clear
1:42 AM 10.4 °F -5.4 °F -0.4 °F 62% 30.18 in 10.0 mi NNW 13.8 mph 23.0 mph N/A   Clear
2:06 AM 8.6 °F -7.7 °F -4.0 °F 57% 30.17 in 10.0 mi North 13.8 mph 25.3 mph N/A   Clear
2:24 AM 8.6 °F -8.3 °F -4.0 °F 57% 30.17 in 10.0 mi North 15.0 mph 27.6 mph N/A   Clear
2:42 AM 8.6 °F -8.9 °F -4.0 °F 57% 30.17 in 10.0 mi North 16.1 mph 26.5 mph N/A   Clear
3:06 AM 8.6 °F -11.9 °F -4.0 °F 57% 30.15 in 10.0 mi NNW 23.0 mph 31.1 mph N/A   Clear
3:24 AM 8.6 °F -11.9 °F -4.0 °F 57% 30.15 in 10.0 mi NNW 23.0 mph 31.1 mph N/A   Clear
3:42 AM 8.6 °F -10.5 °F -4.0 °F 57% 30.15 in 10.0 mi NNW 19.6 mph 29.9 mph N/A   Clear
4:05 AM 6.8 °F -14.7 °F -4.0 °F 61% 30.15 in 10.0 mi NW 24.2 mph 32.2 mph N/A   Clear
4:23 AM 8.6 °F -12.3 °F -4.0 °F 57% 30.15 in 10.0 mi NW 24.2 mph 35.7 mph N/A   Clear
4:47 AM 8.6 °F -12.7 °F -4.0 °F 57% 30.14 in 10.0 mi NW 25.3 mph 34.5 mph N/A   Clear
5:06 AM 6.8 °F -14.7 °F -5.8 °F 56% 30.13 in 10.0 mi NW 24.2 mph - N/A   Clear
5:23 AM 8.6 °F -13.1 °F -4.0 °F 57% 30.12 in 10.0 mi NW 26.5 mph 36.8 mph N/A   Clear
5:47 AM 10.4 °F -11.4 °F -0.4 °F 62% 30.12 in 10.0 mi NW 28.8 mph 40.3 mph N/A   Clear
6:06 AM 10.4 °F -12.0 °F -0.4 °F 62% 30.12 in 10.0 mi NW 31.1 mph 36.8 mph N/A   Clear
6:24 AM 12.2 °F -8.2 °F -0.4 °F 57% 30.13 in 10.0 mi NW 26.5 mph 41.4 mph N/A   Clear
6:47 AM 14.0 °F -7.7 °F 1.4 °F 57% 30.13 in 10.0 mi WNW 33.4 mph - N/A   Clear
7:06 AM 14.0 °F -7.7 °F 3.2 °F 62% 30.13 in 10.0 mi NW 33.4 mph 41.4 mph N/A   Clear
7:23 AM 12.2 °F -9.3 °F 1.4 °F 62% 30.14 in 10.0 mi NW 29.9 mph 39.1 mph N/A   Clear
7:41 AM 6.8 °F -13.8 °F -5.8 °F 56% 30.15 in 10.0 mi NW 21.9 mph 31.1 mph N/A   Clear
7:47 AM 5.0 °F -16.2 °F -5.8 °F 61% 30.15 in 10.0 mi NNW 21.9 mph 26.5 mph N/A   Clear
8:06 AM 5.0 °F -14.7 °F -5.8 °F 61% 30.15 in 10.0 mi NNW 18.4 mph - N/A   Scattered Clouds
8:24 AM 6.8 °F -14.3 °F -5.8 °F 56% 30.15 in 2.0 mi NNW 23.0 mph 27.6 mph N/A   Haze
8:41 AM 6.8 °F -13.8 °F -5.8 °F 56% 30.16 in 0.5 mi NNW 21.9 mph 31.1 mph N/A   Haze
8:47 AM 6.8 °F -11.3 °F -5.8 °F 56% 30.17 in 0.2 mi NNW 16.1 mph 31.1 mph N/A   Haze
9:06 AM 6.8 °F -11.8 °F -4.0 °F 61% 30.17 in 0.2 mi NNW 17.3 mph 36.8 mph N/A Snow , Thunderstorm Light Thunderstorms and Snow
9:23 AM 6.8 °F -14.3 °F -4.0 °F 61% 30.17 in 0.2 mi NW 23.0 mph 35.7 mph N/A   Haze
9:41 AM 6.8 °F -14.7 °F -4.0 °F 61% 30.17 in 0.2 mi NW 24.2 mph 32.2 mph N/A   Haze
9:47 AM 8.6 °F -13.4 °F -4.0 °F 57% 30.17 in 0.2 mi WNW 27.6 mph 32.2 mph N/A   Haze
10:06 AM 10.4 °F -11.0 °F -0.4 °F 62% 30.18 in 10.0 mi WNW 27.6 mph 36.8 mph N/A   Clear
10:24 AM 12.2 °F -7.1 °F 1.4 °F 62% 30.19 in 10.0 mi WNW 23.0 mph 31.1 mph N/A   Clear
10:42 AM 14.0 °F -5.5 °F 3.2 °F 62% 30.20 in 10.0 mi WNW 25.3 mph 31.1 mph N/A   Clear
11:06 AM 17.6 °F -1.6 °F 5.0 °F 58% 30.19 in 10.0 mi West 28.8 mph 39.1 mph N/A   Clear
11:24 AM 17.6 °F -1.6 °F 5.0 °F 58% 30.19 in 10.0 mi WNW 28.8 mph - N/A   Clear
11:42 AM 17.6 °F 0.1 °F 5.0 °F 58% 30.19 in 10.0 mi West 23.0 mph - N/A   Clear
12:06 PM 19.4 °F 4.5 °F 8.6 °F 63% 30.19 in 10.0 mi West 17.3 mph 31.1 mph N/A   Clear
12:24 PM 19.4 °F 3.6 °F 8.6 °F 63% 30.17 in 10.0 mi WNW 19.6 mph 31.1 mph N/A   Clear
12:42 PM 19.4 °F 4.1 °F 8.6 °F 63% 30.17 in 10.0 mi WNW 18.4 mph 35.7 mph N/A   Clear
1:06 PM 19.4 °F 3.6 °F 6.8 °F 58% 30.16 in 10.0 mi WNW 19.6 mph 27.6 mph N/A   Scattered Clouds
1:24 PM 19.4 °F 3.6 °F 8.6 °F 63% 30.15 in 10.0 mi WNW 19.6 mph 29.9 mph N/A   Clear
1:42 PM 17.6 °F 1.3 °F 5.0 °F 58% 30.16 in 10.0 mi WNW 19.6 mph 27.6 mph N/A   Scattered Clouds
2:06 PM 17.6 °F 3.7 °F 6.8 °F 63% 30.17 in 10.0 mi WNW 13.8 mph 31.1 mph N/A   Scattered Clouds
2:24 PM 19.4 °F 5.0 °F 6.8 °F 58% 30.17 in 10.0 mi WNW 16.1 mph 25.3 mph N/A   Scattered Clouds
2:42 PM 19.4 °F 6.0 °F 6.8 °F 58% 30.17 in 10.0 mi WNW 13.8 mph 28.8 mph N/A   Scattered Clouds
3:06 PM 19.4 °F 4.1 °F 6.8 °F 58% 30.17 in 10.0 mi WNW 18.4 mph 29.9 mph N/A   Mostly Cloudy
3:24 PM 17.6 °F 3.7 °F 5.0 °F 58% 30.17 in 10.0 mi WNW 13.8 mph 29.9 mph N/A   Mostly Cloudy
3:42 PM 17.6 °F 4.3 °F 5.0 °F 58% 30.17 in 10.0 mi NW 12.7 mph 26.5 mph N/A   Mostly Cloudy
4:06 PM 17.6 °F 7.3 °F 5.0 °F 58% 30.19 in 7.0 mi NW 8.1 mph 17.3 mph N/A Snow Light Snow
4:23 PM 17.6 °F 5.0 °F 5.0 °F 58% 30.18 in 7.0 mi WNW 11.5 mph - N/A Snow Light Snow
4:41 PM 17.6 °F 8.2 °F 5.0 °F 58% 30.17 in 7.0 mi NW 6.9 mph 18.4 mph N/A Snow Light Snow
4:47 PM 15.8 °F 5.1 °F 3.2 °F 58% 30.17 in 7.0 mi NW 8.1 mph 19.6 mph N/A Snow Light Snow
4:59 PM 17.6 °F 3.2 °F 5.0 °F 58% 30.17 in 7.0 mi WNW 15.0 mph 26.5 mph N/A Snow Light Snow
5:24 PM 17.6 °F 3.2 °F 5.0 °F 58% 30.17 in 10.0 mi West 15.0 mph 20.7 mph N/A   Overcast